Hovedside
METAR-TAF:

METAR-TAF

Lufthavner :

Curaçao internasjonale lufthavn

Curaçao, De nederlandske Antillene

breddegrad: 12-12N, lengdegrad: 068-58W, høyde over havet: 9 m

Gjeldene værobservasjon

Denne rapporten ble laget for 1 time og 5 minutter siden, klokken 09:00 UTC
Vind 5 kt fra Sør-sørøst
Temperatur 28°C
Luftfuktighet 79%
Trykk 1009 hPa
Sikt 10 km eller mer
Få skyer i en høyde av 1600 ft

METAR: TNCC 200900Z 15005KT 9999 FEW016 28/24 Q1009 NOSIG

Tid: 06:05 (10:05 UTC)

Varsel

Denne rapporten ble laget for 4 timer og 50 minutter siden, klokken 05:15 UTC
Varsel gyldig fra 20. klokken 06 UTC til 21. klokken 06 UTC
Vind 8 kt fra Øst
Sikt 10 km eller mer
Spredte skyer i en høyde av 1800 ft
Sannsynlighet 30% :
Midlertidig
fra 20. klokken 08 UTC til 20. klokken 14 UTC
Sikt: 7000 m
Brutte skyer i en høyde av 1500 ft
regnbyger

TAF: TNCC 200515Z 2006/2106 08008KT 9999 SCT018 PROB30 TEMPO 2008/2014 7000 SHRA BKN015

Værobservasjoner og værvarsel for over 4000 flyplasser (METAR- og TAF-rapporter).

Tilgjengelige stasjoner er representert av de røde og gule prikkene på kartet.

Hold musepekeren over prikken for å se navnet på stasjonen.

Klikk så for å se værobservasjoner og -varsler.

For å forandre kartet kan du klikke på den grønne knappen med svart kryss for å zoome inn, på den grønne knappen med strek for å zoome ut, eller på de grønne pilene for å se tilstøtende kart.


METAR-TAF: